sensor_id;sensor_type;location;lat;lon;timestamp;temperature;humidity
46400;DHT22;32104;50.838;4.388;2022-10-04T00:00:46;13.80;99.90
46400;DHT22;32104;50.838;4.388;2022-10-04T00:03:27;13.80;99.90
46400;DHT22;32104;50.838;4.388;2022-10-04T00:05:56;13.80;99.90
46400;DHT22;32104;50.838;4.388;2022-10-04T00:08:25;13.80;99.90
46400;DHT22;32104;50.838;4.388;2022-10-04T00:11:04;13.80;99.90
46400;DHT22;32104;50.838;4.388;2022-10-04T00:13:31;13.70;99.90
46400;DHT22;32104;50.838;4.388;2022-10-04T00:15:57;13.60;99.90
46400;DHT22;32104;50.838;4.388;2022-10-04T00:18:28;13.60;99.90
46400;DHT22;32104;50.838;4.388;2022-10-04T00:20:57;13.60;99.90
46400;DHT22;32104;50.838;4.388;2022-10-04T00:26:00;13.60;99.90
46400;DHT22;32104;50.838;4.388;2022-10-04T00:31:16;13.50;99.90
46400;DHT22;32104;50.838;4.388;2022-10-04T00:36:38;13.30;99.90
46400;DHT22;32104;50.838;4.388;2022-10-04T00:42:28;13.40;99.90
46400;DHT22;32104;50.838;4.388;2022-10-04T00:45:10;13.30;99.90
46400;DHT22;32104;50.838;4.388;2022-10-04T00:50:34;13.10;99.90
46400;DHT22;32104;50.838;4.388;2022-10-04T00:56:04;12.90;99.90
46400;DHT22;32104;50.838;4.388;2022-10-04T01:01:42;12.80;99.90
46400;DHT22;32104;50.838;4.388;2022-10-04T01:04:30;12.70;99.90
46400;DHT22;32104;50.838;4.388;2022-10-04T01:07:02;12.60;99.90
46400;DHT22;32104;50.838;4.388;2022-10-04T01:09:31;12.60;99.90
46400;DHT22;32104;50.838;4.388;2022-10-04T01:12:03;12.50;99.90
46400;DHT22;32104;50.838;4.388;2022-10-04T01:14:46;12.50;99.90
46400;DHT22;32104;50.838;4.388;2022-10-04T01:17:16;12.60;99.90
46400;DHT22;32104;50.838;4.388;2022-10-04T01:19:53;12.60;99.90
46400;DHT22;32104;50.838;4.388;2022-10-04T01:22:50;12.50;99.90
46400;DHT22;32104;50.838;4.388;2022-10-04T01:25:41;12.50;99.90
46400;DHT22;32104;50.838;4.388;2022-10-04T01:28:07;12.60;99.90
46400;DHT22;32104;50.838;4.388;2022-10-04T01:30:36;12.70;99.90
46400;DHT22;32104;50.838;4.388;2022-10-04T01:33:02;12.70;99.90
46400;DHT22;32104;50.838;4.388;2022-10-04T01:35:31;12.80;99.90
46400;DHT22;32104;50.838;4.388;2022-10-04T01:38:02;12.70;99.90
46400;DHT22;32104;50.838;4.388;2022-10-04T01:40:31;12.70;99.90
46400;DHT22;32104;50.838;4.388;2022-10-04T01:43:05;12.60;99.90
46400;DHT22;32104;50.838;4.388;2022-10-04T01:45:45;12.60;99.90
46400;DHT22;32104;50.838;4.388;2022-10-04T01:48:17;12.50;99.90
46400;DHT22;32104;50.838;4.388;2022-10-04T01:53:27;12.60;99.90
46400;DHT22;32104;50.838;4.388;2022-10-04T01:56:06;12.60;99.90
46400;DHT22;32104;50.838;4.388;2022-10-04T01:58:54;12.60;99.90
46400;DHT22;32104;50.838;4.388;2022-10-04T02:01:27;12.60;99.90
46400;DHT22;32104;50.838;4.388;2022-10-04T02:04:33;12.60;99.90
46400;DHT22;32104;50.838;4.388;2022-10-04T02:07:01;12.60;99.90
46400;DHT22;32104;50.838;4.388;2022-10-04T02:09:38;12.60;99.90
46400;DHT22;32104;50.838;4.388;2022-10-04T02:12:07;12.50;99.90
46400;DHT22;32104;50.838;4.388;2022-10-04T02:14:34;12.50;99.90
46400;DHT22;32104;50.838;4.388;2022-10-04T02:17:04;12.50;99.90
46400;DHT22;32104;50.838;4.388;2022-10-04T02:19:35;12.60;99.90
46400;DHT22;32104;50.838;4.388;2022-10-04T02:22:03;12.60;99.90
46400;DHT22;32104;50.838;4.388;2022-10-04T02:24:33;12.60;99.90
46400;DHT22;32104;50.838;4.388;2022-10-04T02:27:00;12.60;99.90
46400;DHT22;32104;50.838;4.388;2022-10-04T02:29:26;12.50;99.90
46400;DHT22;32104;50.838;4.388;2022-10-04T02:31:52;12.40;99.90
46400;DHT22;32104;50.838;4.388;2022-10-04T02:34:37;12.20;99.90
46400;DHT22;32104;50.838;4.388;2022-10-04T02:37:04;12.30;99.90
46400;DHT22;32104;50.838;4.388;2022-10-04T02:39:41;12.20;99.90
46400;DHT22;32104;50.838;4.388;2022-10-04T02:42:32;12.10;99.90
46400;DHT22;32104;50.838;4.388;2022-10-04T02:45:31;12.10;99.90
46400;DHT22;32104;50.838;4.388;2022-10-04T02:50:55;12.20;99.90
46400;DHT22;32104;50.838;4.388;2022-10-04T02:53:41;12.30;99.90
46400;DHT22;32104;50.838;4.388;2022-10-04T02:56:09;12.20;99.90
46400;DHT22;32104;50.838;4.388;2022-10-04T02:58:38;12.10;99.90
46400;DHT22;32104;50.838;4.388;2022-10-04T03:01:05;11.90;99.90
46400;DHT22;32104;50.838;4.388;2022-10-04T03:03:38;11.90;99.90
46400;DHT22;32104;50.838;4.388;2022-10-04T03:06:11;11.90;99.90
46400;DHT22;32104;50.838;4.388;2022-10-04T03:11:13;11.80;99.90
46400;DHT22;32104;50.838;4.388;2022-10-04T03:13:45;11.60;99.90
46400;DHT22;32104;50.838;4.388;2022-10-04T03:16:11;11.50;99.90
46400;DHT22;32104;50.838;4.388;2022-10-04T03:18:38;11.40;99.90
46400;DHT22;32104;50.838;4.388;2022-10-04T03:21:07;11.40;99.90
46400;DHT22;32104;50.838;4.388;2022-10-04T03:23:33;11.30;99.90
46400;DHT22;32104;50.838;4.388;2022-10-04T03:28:31;11.30;99.90
46400;DHT22;32104;50.838;4.388;2022-10-04T03:30:58;11.30;99.90
46400;DHT22;32104;50.838;4.388;2022-10-04T03:33:25;11.20;99.90
46400;DHT22;32104;50.838;4.388;2022-10-04T03:35:57;11.20;99.90
46400;DHT22;32104;50.838;4.388;2022-10-04T03:38:24;11.30;99.90
46400;DHT22;32104;50.838;4.388;2022-10-04T03:40:56;11.20;99.90
46400;DHT22;32104;50.838;4.388;2022-10-04T03:43:25;11.20;99.90
46400;DHT22;32104;50.838;4.388;2022-10-04T03:45:53;11.20;99.90
46400;DHT22;32104;50.838;4.388;2022-10-04T03:48:48;11.10;99.90
46400;DHT22;32104;50.838;4.388;2022-10-04T03:51:25;11.20;99.90
46400;DHT22;32104;50.838;4.388;2022-10-04T03:53:59;11.30;99.90
46400;DHT22;32104;50.838;4.388;2022-10-04T03:56:32;11.30;99.90
46400;DHT22;32104;50.838;4.388;2022-10-04T03:59:03;11.20;99.90
46400;DHT22;32104;50.838;4.388;2022-10-04T04:09:44;11.60;99.90
46400;DHT22;32104;50.838;4.388;2022-10-04T04:12:17;11.50;99.90
46400;DHT22;32104;50.838;4.388;2022-10-04T04:14:48;11.40;99.90
46400;DHT22;32104;50.838;4.388;2022-10-04T04:17:34;11.20;99.90
46400;DHT22;32104;50.838;4.388;2022-10-04T04:20:04;11.20;99.90
46400;DHT22;32104;50.838;4.388;2022-10-04T04:22:32;11.40;99.90
46400;DHT22;32104;50.838;4.388;2022-10-04T04:25:01;11.50;99.90
46400;DHT22;32104;50.838;4.388;2022-10-04T04:27:29;11.50;99.90
46400;DHT22;32104;50.838;4.388;2022-10-04T04:29:59;11.70;99.90
46400;DHT22;32104;50.838;4.388;2022-10-04T04:32:45;11.60;99.90
46400;DHT22;32104;50.838;4.388;2022-10-04T04:35:31;11.70;99.90
46400;DHT22;32104;50.838;4.388;2022-10-04T04:38:21;11.80;99.90
46400;DHT22;32104;50.838;4.388;2022-10-04T04:40:50;11.70;99.90
46400;DHT22;32104;50.838;4.388;2022-10-04T04:43:20;11.80;99.90
46400;DHT22;32104;50.838;4.388;2022-10-04T04:45:49;11.70;99.90
46400;DHT22;32104;50.838;4.388;2022-10-04T04:48:16;11.70;99.90
46400;DHT22;32104;50.838;4.388;2022-10-04T04:50:51;11.80;99.90
46400;DHT22;32104;50.838;4.388;2022-10-04T04:53:26;11.80;99.90
46400;DHT22;32104;50.838;4.388;2022-10-04T04:55:58;11.80;99.90
46400;DHT22;32104;50.838;4.388;2022-10-04T04:58:37;11.70;99.90
46400;DHT22;32104;50.838;4.388;2022-10-04T05:01:18;11.50;99.90
46400;DHT22;32104;50.838;4.388;2022-10-04T05:03:59;11.50;99.90
46400;DHT22;32104;50.838;4.388;2022-10-04T05:06:28;11.40;99.90
46400;DHT22;32104;50.838;4.388;2022-10-04T05:08:55;11.50;99.90
46400;DHT22;32104;50.838;4.388;2022-10-04T05:11:21;11.40;99.90
46400;DHT22;32104;50.838;4.388;2022-10-04T05:14:02;11.40;99.90
46400;DHT22;32104;50.838;4.388;2022-10-04T05:16:39;11.50;99.90
46400;DHT22;32104;50.838;4.388;2022-10-04T05:21:45;11.50;99.90
46400;DHT22;32104;50.838;4.388;2022-10-04T05:24:29;11.60;99.90
46400;DHT22;32104;50.838;4.388;2022-10-04T05:27:01;11.50;99.90
46400;DHT22;32104;50.838;4.388;2022-10-04T05:29:32;11.60;99.90
46400;DHT22;32104;50.838;4.388;2022-10-04T05:32:09;11.50;99.90
46400;DHT22;32104;50.838;4.388;2022-10-04T05:34:39;11.40;99.90
46400;DHT22;32104;50.838;4.388;2022-10-04T05:42:42;11.40;99.90
46400;DHT22;32104;50.838;4.388;2022-10-04T05:45:19;11.30;99.90
46400;DHT22;32104;50.838;4.388;2022-10-04T05:47:47;11.30;99.90
46400;DHT22;32104;50.838;4.388;2022-10-04T05:50:37;11.10;99.90
46400;DHT22;32104;50.838;4.388;2022-10-04T05:53:28;11.20;99.90
46400;DHT22;32104;50.838;4.388;2022-10-04T05:56:27;11.30;99.90
46400;DHT22;32104;50.838;4.388;2022-10-04T06:02:00;11.00;99.90
46400;DHT22;32104;50.838;4.388;2022-10-04T06:05:12;11.10;99.90
46400;DHT22;32104;50.838;4.388;2022-10-04T06:08:08;11.30;99.90
46400;DHT22;32104;50.838;4.388;2022-10-04T06:10:55;11.50;99.90
46400;DHT22;32104;50.838;4.388;2022-10-04T06:19:19;11.30;99.90
46400;DHT22;32104;50.838;4.388;2022-10-04T06:22:17;11.20;99.90
46400;DHT22;32104;50.838;4.388;2022-10-04T06:27:25;11.30;99.90
46400;DHT22;32104;50.838;4.388;2022-10-04T06:30:00;11.40;99.90
46400;DHT22;32104;50.838;4.388;2022-10-04T06:35:32;11.50;99.90
46400;DHT22;32104;50.838;4.388;2022-10-04T06:38:10;11.50;99.90
46400;DHT22;32104;50.838;4.388;2022-10-04T07:27:09;12.30;99.90
46400;DHT22;32104;50.838;4.388;2022-10-04T07:29:41;12.30;99.90
46400;DHT22;32104;50.838;4.388;2022-10-04T07:32:15;12.30;99.90
46400;DHT22;32104;50.838;4.388;2022-10-04T07:37:58;12.40;99.90
46400;DHT22;32104;50.838;4.388;2022-10-04T07:40:33;12.50;99.90
46400;DHT22;32104;50.838;4.388;2022-10-04T07:44:12;12.40;99.90
46400;DHT22;32104;50.838;4.388;2022-10-04T07:48:52;12.70;99.90
46400;DHT22;32104;50.838;4.388;2022-10-04T07:51:49;12.90;99.90
46400;DHT22;32104;50.838;4.388;2022-10-04T07:57:16;13.10;99.90
46400;DHT22;32104;50.838;4.388;2022-10-04T08:00:03;13.00;99.90
46400;DHT22;32104;50.838;4.388;2022-10-04T08:02:45;13.00;99.90
46400;DHT22;32104;50.838;4.388;2022-10-04T08:05:57;13.00;99.90
46400;DHT22;32104;50.838;4.388;2022-10-04T08:08:54;13.30;99.90
46400;DHT22;32104;50.838;4.388;2022-10-04T08:25:47;13.90;99.90
46400;DHT22;32104;50.838;4.388;2022-10-04T09:11:46;14.60;99.90
46400;DHT22;32104;50.838;4.388;2022-10-04T09:19:32;14.70;99.90
46400;DHT22;32104;50.838;4.388;2022-10-04T09:28:28;15.00;99.90
46400;DHT22;32104;50.838;4.388;2022-10-04T12:11:30;18.50;99.90
46400;DHT22;32104;50.838;4.388;2022-10-04T12:17:28;18.50;99.90
46400;DHT22;32104;50.838;4.388;2022-10-04T12:23:04;18.60;99.90
46400;DHT22;32104;50.838;4.388;2022-10-04T12:31:45;18.70;99.90
46400;DHT22;32104;50.838;4.388;2022-10-04T12:34:35;18.70;99.90
46400;DHT22;32104;50.838;4.388;2022-10-04T12:47:49;18.90;99.90
46400;DHT22;32104;50.838;4.388;2022-10-04T12:53:23;19.00;99.90
46400;DHT22;32104;50.838;4.388;2022-10-04T12:56:11;19.10;99.90
46400;DHT22;32104;50.838;4.388;2022-10-04T13:02:07;19.30;99.90
46400;DHT22;32104;50.838;4.388;2022-10-04T13:04:44;19.30;99.90
46400;DHT22;32104;50.838;4.388;2022-10-04T13:15:43;19.60;99.90
46400;DHT22;32104;50.838;4.388;2022-10-04T13:20:59;19.40;99.90
46400;DHT22;32104;50.838;4.388;2022-10-04T13:34:42;19.50;99.90
46400;DHT22;32104;50.838;4.388;2022-10-04T13:37:15;19.60;99.90
46400;DHT22;32104;50.838;4.388;2022-10-04T13:48:25;19.80;99.90
46400;DHT22;32104;50.838;4.388;2022-10-04T13:51:17;19.70;99.90
46400;DHT22;32104;50.838;4.388;2022-10-04T13:53:47;19.70;99.90
46400;DHT22;32104;50.838;4.388;2022-10-04T13:56:48;19.70;99.90
46400;DHT22;32104;50.838;4.388;2022-10-04T14:02:02;19.60;99.90
46400;DHT22;32104;50.838;4.388;2022-10-04T14:05:24;19.70;99.90
46400;DHT22;32104;50.838;4.388;2022-10-04T14:16:29;19.90;99.90
46400;DHT22;32104;50.838;4.388;2022-10-04T14:19:07;20.00;99.90
46400;DHT22;32104;50.838;4.388;2022-10-04T14:45:26;19.70;99.90
46400;DHT22;32104;50.838;4.388;2022-10-04T14:56:12;19.90;99.90
46400;DHT22;32104;50.838;4.388;2022-10-04T14:58:50;19.70;99.90
46400;DHT22;32104;50.838;4.388;2022-10-04T15:06:57;19.60;99.90
46400;DHT22;32104;50.838;4.388;2022-10-04T15:09:41;19.50;99.90
46400;DHT22;32104;50.838;4.388;2022-10-04T15:12:43;19.50;99.90
46400;DHT22;32104;50.838;4.388;2022-10-04T15:23:17;19.40;99.90
46400;DHT22;32104;50.838;4.388;2022-10-04T15:25:55;19.40;99.90
46400;DHT22;32104;50.838;4.388;2022-10-04T15:33:40;19.40;99.90
46400;DHT22;32104;50.838;4.388;2022-10-04T15:36:36;19.50;99.90
46400;DHT22;32104;50.838;4.388;2022-10-04T15:42:28;19.40;99.90
46400;DHT22;32104;50.838;4.388;2022-10-04T15:51:06;19.30;99.90
46400;DHT22;32104;50.838;4.388;2022-10-04T16:07:28;19.00;99.90
46400;DHT22;32104;50.838;4.388;2022-10-04T16:13:07;18.80;99.90
46400;DHT22;32104;50.838;4.388;2022-10-04T16:15:41;18.70;99.90
46400;DHT22;32104;50.838;4.388;2022-10-04T16:18:39;18.80;99.90
46400;DHT22;32104;50.838;4.388;2022-10-04T16:24:25;18.60;99.90
46400;DHT22;32104;50.838;4.388;2022-10-04T16:29:38;18.40;99.90
46400;DHT22;32104;50.838;4.388;2022-10-04T16:32:27;18.40;99.90
46400;DHT22;32104;50.838;4.388;2022-10-04T16:34:58;18.40;99.90
46400;DHT22;32104;50.838;4.388;2022-10-04T16:37:59;18.40;99.90
46400;DHT22;32104;50.838;4.388;2022-10-04T16:40:33;18.40;99.90
46400;DHT22;32104;50.838;4.388;2022-10-04T16:43:05;18.20;99.90
46400;DHT22;32104;50.838;4.388;2022-10-04T19:27:05;16.80;99.90
46400;DHT22;32104;50.838;4.388;2022-10-04T19:38:41;16.80;99.90
46400;DHT22;32104;50.838;4.388;2022-10-04T19:44:55;16.80;99.90
46400;DHT22;32104;50.838;4.388;2022-10-04T19:48:16;16.70;99.90
46400;DHT22;32104;50.838;4.388;2022-10-04T19:50:59;16.70;99.90
46400;DHT22;32104;50.838;4.388;2022-10-04T19:53:42;16.90;99.90
46400;DHT22;32104;50.838;4.388;2022-10-04T19:56:41;16.70;99.90
46400;DHT22;32104;50.838;4.388;2022-10-04T19:59:41;16.70;99.90
46400;DHT22;32104;50.838;4.388;2022-10-04T20:02:16;16.70;99.90
46400;DHT22;32104;50.838;4.388;2022-10-04T20:04:42;16.90;99.90
46400;DHT22;32104;50.838;4.388;2022-10-04T20:10:14;16.70;99.90
46400;DHT22;32104;50.838;4.388;2022-10-04T20:13:17;16.60;99.90
46400;DHT22;32104;50.838;4.388;2022-10-04T20:15:57;16.70;99.90
46400;DHT22;32104;50.838;4.388;2022-10-04T20:26:41;16.90;99.90
46400;DHT22;32104;50.838;4.388;2022-10-04T20:34:47;16.90;99.90
46400;DHT22;32104;50.838;4.388;2022-10-04T20:46:21;16.90;99.90
46400;DHT22;32104;50.838;4.388;2022-10-04T20:48:53;16.90;99.90
46400;DHT22;32104;50.838;4.388;2022-10-04T20:51:29;16.90;99.90
46400;DHT22;32104;50.838;4.388;2022-10-04T20:57:04;16.80;99.90
46400;DHT22;32104;50.838;4.388;2022-10-04T21:02:15;17.10;99.90
46400;DHT22;32104;50.838;4.388;2022-10-04T21:04:43;17.00;99.90
46400;DHT22;32104;50.838;4.388;2022-10-04T21:07:27;16.90;99.90
46400;DHT22;32104;50.838;4.388;2022-10-04T21:10:14;16.90;99.90
46400;DHT22;32104;50.838;4.388;2022-10-04T21:12:42;16.90;99.90
46400;DHT22;32104;50.838;4.388;2022-10-04T21:15:29;16.90;99.90
46400;DHT22;32104;50.838;4.388;2022-10-04T21:18:06;16.70;99.90
46400;DHT22;32104;50.838;4.388;2022-10-04T21:20:52;16.80;99.90
46400;DHT22;32104;50.838;4.388;2022-10-04T21:29:08;16.90;99.90
46400;DHT22;32104;50.838;4.388;2022-10-04T21:31:34;17.10;99.90
46400;DHT22;32104;50.838;4.388;2022-10-04T21:33:59;16.90;99.90
46400;DHT22;32104;50.838;4.388;2022-10-04T21:36:27;16.90;99.90
46400;DHT22;32104;50.838;4.388;2022-10-04T21:38:53;16.90;99.90
46400;DHT22;32104;50.838;4.388;2022-10-04T21:41:19;16.90;99.90
46400;DHT22;32104;50.838;4.388;2022-10-04T21:43:47;16.90;99.90
46400;DHT22;32104;50.838;4.388;2022-10-04T21:46:13;16.90;99.90
46400;DHT22;32104;50.838;4.388;2022-10-04T21:48:41;17.00;99.90
46400;DHT22;32104;50.838;4.388;2022-10-04T21:51:07;17.10;99.90
46400;DHT22;32104;50.838;4.388;2022-10-04T21:53:43;16.90;99.90
46400;DHT22;32104;50.838;4.388;2022-10-04T21:56:09;16.90;99.90
46400;DHT22;32104;50.838;4.388;2022-10-04T21:58:35;16.80;99.90
46400;DHT22;32104;50.838;4.388;2022-10-04T22:01:04;17.00;99.90
46400;DHT22;32104;50.838;4.388;2022-10-04T22:03:33;16.90;99.90
46400;DHT22;32104;50.838;4.388;2022-10-04T22:06:02;16.90;99.90
46400;DHT22;32104;50.838;4.388;2022-10-04T22:08:28;16.90;99.90
46400;DHT22;32104;50.838;4.388;2022-10-04T22:10:59;16.90;99.90
46400;DHT22;32104;50.838;4.388;2022-10-04T22:15:55;16.90;99.90
46400;DHT22;32104;50.838;4.388;2022-10-04T22:18:30;17.00;99.90
46400;DHT22;32104;50.838;4.388;2022-10-04T22:21:00;16.90;99.90
46400;DHT22;32104;50.838;4.388;2022-10-04T22:23:28;16.80;99.90
46400;DHT22;32104;50.838;4.388;2022-10-04T22:28:37;16.80;99.90
46400;DHT22;32104;50.838;4.388;2022-10-04T22:36:36;16.90;99.90
46400;DHT22;32104;50.838;4.388;2022-10-04T22:39:18;17.00;99.90
46400;DHT22;32104;50.838;4.388;2022-10-04T22:42:09;17.00;99.90
46400;DHT22;32104;50.838;4.388;2022-10-04T22:44:38;17.00;99.90
46400;DHT22;32104;50.838;4.388;2022-10-04T22:49:48;16.90;99.90
46400;DHT22;32104;50.838;4.388;2022-10-04T23:09:10;16.60;99.90
46400;DHT22;32104;50.838;4.388;2022-10-04T23:11:36;16.90;99.90
46400;DHT22;32104;50.838;4.388;2022-10-04T23:14:29;16.90;99.90
